This is the latest recevied weather packets stored in our database for station/object YO8RBY-2. If no packets are shown the sender has not sent any weather packets the latest 10 day(s).
| Time | Temp. | Humidity | Pressure | Rain* | Wind** | Luminosity | Snow |
|---|---|---|---|---|---|---|---|
| 1777266925 | 8.89° C | 37% | 981 hPa | - | - | 0 W/m² | - |
| 1777265101 | 6.67° C | 39% | 981 hPa | - | - | 0 W/m² | - |
| 1777263276 | 5° C | 41% | 981 hPa | - | - | 0 W/m² | - |
| 1777261452 | 4.44° C | 42% | 981 hPa | - | - | 0 W/m² | - |
| 1777259629 | 4.44° C | 42% | 981 hPa | - | - | 0 W/m² | - |
| 1777257805 | 3.89° C | 43% | 980 hPa | - | - | 0 W/m² | - |
| 1777255981 | 3.89° C | 41% | 980 hPa | - | - | 0 W/m² | - |
| 1777254156 | 4.44° C | 42% | 980 hPa | - | - | 0 W/m² | - |
| 1777252332 | 4.44° C | 40% | 980 hPa | - | - | 0 W/m² | - |
| 1777250507 | 5° C | 41% | 980 hPa | - | - | 0 W/m² | - |
| 1777248683 | 5.56° C | 40% | 980 hPa | - | - | 0 W/m² | - |
| 1777246860 | 5.56° C | 39% | 980 hPa | - | - | 0 W/m² | - |
| 1777245035 | 6.11° C | 39% | 980 hPa | - | - | 0 W/m² | - |
| 1777241387 | 7.78° C | 36% | 980 hPa | - | - | 0 W/m² | - |
| 1777239563 | 7.78° C | 36% | 979 hPa | - | - | 0 W/m² | - |
| 1777232267 | 10° C | 29% | 977 hPa | - | - | 0 W/m² | - |
| 1777230442 | 10° C | 29% | 976 hPa | - | - | 0 W/m² | - |
| 1777228618 | 11.11° C | 28% | 976 hPa | - | - | 0 W/m² | - |
| 1777226794 | 11.67° C | 26% | 975 hPa | - | - | 0 W/m² | - |
| 1777224970 | 12.78° C | 25% | 974 hPa | - | - | 0 W/m² | - |
| 1777224942 | 12.78° C | 24% | 974 hPa | - | - | 0 W/m² | - |
| 1777223118 | 15° C | 21% | 973 hPa | - | - | 0 W/m² | - |
| 1777221293 | 22.78° C | 14% | 972 hPa | - | - | 0 W/m² | - |
| 1777219469 | 36.11° C | 8% | 972 hPa | - | - | 0 W/m² | - |
| 1777217645 | 26.67° C | 12% | 971 hPa | - | - | 0 W/m² | - |
* Rain since midnight (hover to see other rain measurements)
** Current wind speed in m/s (hover to see current wind gust speed)